sensor_id;sensor_type;location;lat;lon;timestamp;pressure;altitude;pressure_sealevel;temperature;humidity
70902;BME280;58548;47.210;8.618;2023-01-19T00:00:37;93036.47;;;7.66;39.21
70902;BME280;58548;47.210;8.618;2023-01-19T00:03:05;92904.09;;;6.91;39.08
70902;BME280;58548;47.210;8.618;2023-01-19T00:05:31;93026.91;;;7.67;38.78
70902;BME280;58548;47.210;8.618;2023-01-19T00:07:58;92914.69;;;6.96;39.08
70902;BME280;58548;47.210;8.618;2023-01-19T00:10:40;93031.09;;;7.68;39.43
70902;BME280;58548;47.210;8.618;2023-01-19T00:13:06;92897.47;;;6.82;39.46
70902;BME280;58548;47.210;8.618;2023-01-19T00:15:35;92902.66;;;6.82;39.69
70902;BME280;58548;47.210;8.618;2023-01-19T00:18:03;93027.91;;;7.59;39.25
70902;BME280;58548;47.210;8.618;2023-01-19T00:20:35;93031.69;;;7.63;39.37
70902;BME280;58548;47.210;8.618;2023-01-19T00:23:02;92995.25;;;7.30;39.45
70902;BME280;58548;47.210;8.618;2023-01-19T00:25:29;92911.03;;;6.84;39.17
70902;BME280;58548;47.210;8.618;2023-01-19T00:27:58;93016.66;;;7.45;39.58
70902;BME280;58548;47.210;8.618;2023-01-19T00:30:24;93054.50;;;7.61;39.10
70902;BME280;58548;47.210;8.618;2023-01-19T00:32:50;93008.44;;;7.35;39.32
70902;BME280;58548;47.210;8.618;2023-01-19T00:35:16;93008.66;;;7.33;39.02
70902;BME280;58548;47.210;8.618;2023-01-19T00:37:47;93042.44;;;7.53;39.43
70902;BME280;58548;47.210;8.618;2023-01-19T00:40:15;92933.41;;;6.85;38.94
70902;BME280;58548;47.210;8.618;2023-01-19T00:42:41;92922.00;;;6.72;39.02
70902;BME280;58548;47.210;8.618;2023-01-19T00:45:15;93050.25;;;7.53;38.83
70902;BME280;58548;47.210;8.618;2023-01-19T00:47:47;93003.63;;;7.25;38.57
70902;BME280;58548;47.210;8.618;2023-01-19T00:50:15;92914.19;;;6.66;39.13
70902;BME280;58548;47.210;8.618;2023-01-19T00:52:44;93055.03;;;7.50;39.47
70902;BME280;58548;47.210;8.618;2023-01-19T00:55:12;93044.63;;;7.43;39.09
70902;BME280;58548;47.210;8.618;2023-01-19T00:57:41;92960.97;;;6.86;38.64
70902;BME280;58548;47.210;8.618;2023-01-19T01:00:15;92893.34;;;6.45;38.71
70902;BME280;58548;47.210;8.618;2023-01-19T01:02:45;93019.81;;;7.27;38.76
70902;BME280;58548;47.210;8.618;2023-01-19T01:05:11;93034.63;;;7.33;38.78
70902;BME280;58548;47.210;8.618;2023-01-19T01:07:40;93057.03;;;7.48;38.85
70902;BME280;58548;47.210;8.618;2023-01-19T01:12:35;92929.56;;;6.67;38.68
70902;BME280;58548;47.210;8.618;2023-01-19T01:15:05;92797.72;;;5.80;38.00
70902;BME280;58548;47.210;8.618;2023-01-19T01:17:31;93031.03;;;7.34;38.03
70902;BME280;58548;47.210;8.618;2023-01-19T01:20:00;93051.63;;;7.43;37.95
70902;BME280;58548;47.210;8.618;2023-01-19T01:22:28;92967.97;;;6.85;37.97
70902;BME280;58548;47.210;8.618;2023-01-19T01:24:56;93038.56;;;7.22;37.75
70902;BME280;58548;47.210;8.618;2023-01-19T01:27:24;92941.31;;;6.63;38.01
70902;BME280;58548;47.210;8.618;2023-01-19T01:29:50;93075.41;;;7.39;37.80
70902;BME280;58548;47.210;8.618;2023-01-19T01:32:16;93039.31;;;7.09;37.82
70902;BME280;58548;47.210;8.618;2023-01-19T01:34:42;93074.34;;;7.27;37.40
70902;BME280;58548;47.210;8.618;2023-01-19T01:37:08;92951.56;;;6.36;37.30
70902;BME280;58548;47.210;8.618;2023-01-19T01:39:34;93051.03;;;6.92;37.07
70902;BME280;58548;47.210;8.618;2023-01-19T01:42:01;93072.78;;;6.91;36.75
70902;BME280;58548;47.210;8.618;2023-01-19T01:49:57;93078.50;;;6.44;36.83
70902;BME280;58548;47.210;8.618;2023-01-19T01:52:33;93065.31;;;6.17;36.50
70902;BME280;58548;47.210;8.618;2023-01-19T01:55:04;92944.97;;;5.26;36.51
70902;BME280;58548;47.210;8.618;2023-01-19T01:57:37;93079.81;;;5.90;36.12
70902;BME280;58548;47.210;8.618;2023-01-19T02:00:07;93042.81;;;5.53;36.04
70902;BME280;58548;47.210;8.618;2023-01-19T02:02:35;93009.16;;;5.16;35.75
70902;BME280;58548;47.210;8.618;2023-01-19T02:05:28;93062.69;;;5.31;36.00
70902;BME280;58548;47.210;8.618;2023-01-19T02:11:24;92906.66;;;3.82;37.05
70902;BME280;58548;47.210;8.618;2023-01-19T02:14:08;93057.41;;;4.57;36.89
70902;BME280;58548;47.210;8.618;2023-01-19T02:16:37;93075.66;;;4.56;36.92
70902;BME280;58548;47.210;8.618;2023-01-19T02:19:14;93071.94;;;4.43;36.15
70902;BME280;58548;47.210;8.618;2023-01-19T02:22:10;93073.22;;;4.24;36.54
70902;BME280;58548;47.210;8.618;2023-01-19T02:24:38;92984.13;;;3.43;36.01
70902;BME280;58548;47.210;8.618;2023-01-19T02:27:07;92989.44;;;3.27;35.96
70902;BME280;58548;47.210;8.618;2023-01-19T02:29:34;93040.59;;;3.46;36.76
70902;BME280;58548;47.210;8.618;2023-01-19T02:32:00;93095.31;;;3.65;36.19
70902;BME280;58548;47.210;8.618;2023-01-19T02:34:28;93017.28;;;3.08;36.56
70902;BME280;58548;47.210;8.618;2023-01-19T02:36:58;92930.47;;;2.37;36.47
70902;BME280;58548;47.210;8.618;2023-01-19T02:39:41;93095.84;;;3.29;37.00
70902;BME280;58548;47.210;8.618;2023-01-19T02:42:17;93012.00;;;2.62;36.84
70902;BME280;58548;47.210;8.618;2023-01-19T02:44:47;92925.91;;;2.00;36.50
70902;BME280;58548;47.210;8.618;2023-01-19T02:47:16;93100.81;;;2.99;36.45
70902;BME280;58548;47.210;8.618;2023-01-19T02:49:42;93105.84;;;2.92;37.66
70902;BME280;58548;47.210;8.618;2023-01-19T02:52:16;92960.72;;;1.87;37.01
70902;BME280;58548;47.210;8.618;2023-01-19T02:55:14;93103.00;;;2.79;36.67
70902;BME280;58548;47.210;8.618;2023-01-19T03:00:43;93085.16;;;2.61;37.97
70902;BME280;58548;47.210;8.618;2023-01-19T03:03:24;93102.38;;;2.68;38.15
70902;BME280;58548;47.210;8.618;2023-01-19T03:06:05;93110.94;;;2.69;37.79
70902;BME280;58548;47.210;8.618;2023-01-19T03:08:45;93067.81;;;2.46;37.19
70902;BME280;58548;47.210;8.618;2023-01-19T03:11:13;93092.56;;;2.64;37.26
70902;BME280;58548;47.210;8.618;2023-01-19T03:13:46;93102.28;;;2.53;36.75
70902;BME280;58548;47.210;8.618;2023-01-19T03:16:20;92948.69;;;1.46;36.49
70902;BME280;58548;47.210;8.618;2023-01-19T03:19:03;93090.72;;;2.24;36.90
70902;BME280;58548;47.210;8.618;2023-01-19T03:21:35;93110.03;;;2.20;35.90
70902;BME280;58548;47.210;8.618;2023-01-19T03:24:05;93083.97;;;1.99;36.98
70902;BME280;58548;47.210;8.618;2023-01-19T03:26:40;93108.25;;;2.04;37.17
70902;BME280;58548;47.210;8.618;2023-01-19T03:29:11;92991.78;;;1.19;36.49
70902;BME280;58548;47.210;8.618;2023-01-19T03:31:44;93106.03;;;1.93;37.54
70902;BME280;58548;47.210;8.618;2023-01-19T03:34:15;93021.53;;;1.30;37.40
70902;BME280;58548;47.210;8.618;2023-01-19T03:36:46;92996.75;;;1.13;37.28
70902;BME280;58548;47.210;8.618;2023-01-19T03:39:21;93076.25;;;1.57;36.88
70902;BME280;58548;47.210;8.618;2023-01-19T03:41:55;92983.22;;;0.94;37.44
70902;BME280;58548;47.210;8.618;2023-01-19T03:44:27;93104.25;;;1.69;37.01
70902;BME280;58548;47.210;8.618;2023-01-19T03:46:58;93123.53;;;1.73;36.99
70902;BME280;58548;47.210;8.618;2023-01-19T03:49:25;92982.25;;;0.79;36.86
70902;BME280;58548;47.210;8.618;2023-01-19T03:51:54;93124.66;;;1.62;37.33
70902;BME280;58548;47.210;8.618;2023-01-19T03:54:21;93116.63;;;1.57;37.45
70902;BME280;58548;47.210;8.618;2023-01-19T03:56:52;93116.41;;;1.50;37.49
70902;BME280;58548;47.210;8.618;2023-01-19T03:59:18;93116.91;;;1.45;37.36
70902;BME280;58548;47.210;8.618;2023-01-19T04:01:47;92954.16;;;0.34;36.94
70902;BME280;58548;47.210;8.618;2023-01-19T04:04:13;93134.09;;;1.37;36.44
70902;BME280;58548;47.210;8.618;2023-01-19T04:06:43;93140.50;;;1.32;37.23
70902;BME280;58548;47.210;8.618;2023-01-19T04:09:11;93101.97;;;0.98;37.02
70902;BME280;58548;47.210;8.618;2023-01-19T04:11:37;93091.81;;;0.88;36.33
70902;BME280;58548;47.210;8.618;2023-01-19T04:14:05;92982.13;;;0.11;37.29
70902;BME280;58548;47.210;8.618;2023-01-19T04:16:31;93138.19;;;1.04;36.50
70902;BME280;58548;47.210;8.618;2023-01-19T04:18:57;93036.50;;;0.33;36.86
70902;BME280;58548;47.210;8.618;2023-01-19T04:21:23;93092.34;;;0.65;37.22
70902;BME280;58548;47.210;8.618;2023-01-19T04:23:49;93132.94;;;0.88;36.95
70902;BME280;58548;47.210;8.618;2023-01-19T04:26:15;93128.75;;;0.79;37.13
70902;BME280;58548;47.210;8.618;2023-01-19T04:28:43;93133.38;;;0.75;36.93
70902;BME280;58548;47.210;8.618;2023-01-19T04:31:09;93106.81;;;0.58;36.78
70902;BME280;58548;47.210;8.618;2023-01-19T04:33:37;92979.88;;;-0.27;36.46
70902;BME280;58548;47.210;8.618;2023-01-19T04:36:06;93133.09;;;0.52;37.13
70902;BME280;58548;47.210;8.618;2023-01-19T04:38:35;93026.75;;;-0.17;37.09
70902;BME280;58548;47.210;8.618;2023-01-19T04:41:03;93144.88;;;0.63;37.87
70902;BME280;58548;47.210;8.618;2023-01-19T04:43:32;93153.53;;;0.62;37.97
70902;BME280;58548;47.210;8.618;2023-01-19T04:45:58;93025.44;;;-0.21;37.21
70902;BME280;58548;47.210;8.618;2023-01-19T04:48:26;93008.97;;;-0.36;37.83
70902;BME280;58548;47.210;8.618;2023-01-19T04:50:52;93160.41;;;0.53;37.79
70902;BME280;58548;47.210;8.618;2023-01-19T04:53:20;93152.31;;;0.48;37.59
70902;BME280;58548;47.210;8.618;2023-01-19T04:55:46;93023.50;;;-0.45;37.14
70902;BME280;58548;47.210;8.618;2023-01-19T04:58:15;93134.50;;;0.20;37.30
70902;BME280;58548;47.210;8.618;2023-01-19T05:00:44;93142.63;;;0.15;37.54
70902;BME280;58548;47.210;8.618;2023-01-19T05:03:10;93153.44;;;0.19;36.68
70902;BME280;58548;47.210;8.618;2023-01-19T05:05:38;93160.19;;;0.20;36.86
70902;BME280;58548;47.210;8.618;2023-01-19T05:08:09;93143.69;;;0.04;37.25
70902;BME280;58548;47.210;8.618;2023-01-19T05:10:35;93173.03;;;0.20;36.81
70902;BME280;58548;47.210;8.618;2023-01-19T05:13:06;93171.41;;;0.19;37.83
70902;BME280;58548;47.210;8.618;2023-01-19T05:15:32;93178.78;;;0.22;38.15
70902;BME280;58548;47.210;8.618;2023-01-19T05:18:00;93181.34;;;0.22;37.34
70902;BME280;58548;47.210;8.618;2023-01-19T05:20:26;93090.13;;;-0.35;37.27
70902;BME280;58548;47.210;8.618;2023-01-19T05:22:54;93031.53;;;-0.66;38.02
70902;BME280;58548;47.210;8.618;2023-01-19T05:25:20;93185.63;;;0.31;37.31
70902;BME280;58548;47.210;8.618;2023-01-19T05:27:46;93019.94;;;-0.70;37.24
70902;BME280;58548;47.210;8.618;2023-01-19T05:30:15;93163.53;;;0.20;36.99
70902;BME280;58548;47.210;8.618;2023-01-19T05:32:43;93040.66;;;-0.64;37.46
70902;BME280;58548;47.210;8.618;2023-01-19T05:35:09;93186.19;;;0.25;38.09
70902;BME280;58548;47.210;8.618;2023-01-19T05:37:35;93173.66;;;0.22;37.41
70902;BME280;58548;47.210;8.618;2023-01-19T05:40:01;93182.34;;;0.21;37.94
70902;BME280;58548;47.210;8.618;2023-01-19T05:42:29;92998.84;;;-1.00;37.90
70902;BME280;58548;47.210;8.618;2023-01-19T05:44:56;93187.81;;;0.26;38.20
70902;BME280;58548;47.210;8.618;2023-01-19T05:47:24;93142.50;;;-0.02;38.05
70902;BME280;58548;47.210;8.618;2023-01-19T05:49:50;93025.88;;;-0.70;38.55
70902;BME280;58548;47.210;8.618;2023-01-19T05:52:16;93031.53;;;-0.66;38.09
70902;BME280;58548;47.210;8.618;2023-01-19T05:54:42;93196.75;;;0.40;38.51
70902;BME280;58548;47.210;8.618;2023-01-19T05:57:08;93138.25;;;0.07;37.52
70902;BME280;58548;47.210;8.618;2023-01-19T05:59:34;93156.59;;;0.12;37.54
70902;BME280;58548;47.210;8.618;2023-01-19T06:01:59;93192.44;;;0.22;37.47
70902;BME280;58548;47.210;8.618;2023-01-19T06:04:25;93071.00;;;-0.59;37.23
70902;BME280;58548;47.210;8.618;2023-01-19T06:06:53;93206.91;;;0.23;37.43
70902;BME280;58548;47.210;8.618;2023-01-19T06:09:24;93175.75;;;0.00;37.70
70902;BME280;58548;47.210;8.618;2023-01-19T06:11:55;93221.50;;;0.23;37.61
70902;BME280;58548;47.210;8.618;2023-01-19T06:14:22;93220.41;;;0.25;38.01
70902;BME280;58548;47.210;8.618;2023-01-19T06:16:48;93081.91;;;-0.57;37.98
70902;BME280;58548;47.210;8.618;2023-01-19T06:19:14;93175.16;;;0.06;37.33
70902;BME280;58548;47.210;8.618;2023-01-19T06:21:40;93204.47;;;0.22;37.91
70902;BME280;58548;47.210;8.618;2023-01-19T06:24:06;93189.97;;;0.12;38.23
70902;BME280;58548;47.210;8.618;2023-01-19T06:26:32;93210.34;;;0.32;38.55
70902;BME280;58548;47.210;8.618;2023-01-19T06:28:58;93216.50;;;0.39;37.86
70902;BME280;58548;47.210;8.618;2023-01-19T06:31:24;93199.41;;;0.30;37.23
70902;BME280;58548;47.210;8.618;2023-01-19T06:33:52;93128.59;;;-0.17;37.61
70902;BME280;58548;47.210;8.618;2023-01-19T06:36:20;93224.88;;;0.41;37.68
70902;BME280;58548;47.210;8.618;2023-01-19T06:38:46;93212.97;;;0.40;37.28
70902;BME280;58548;47.210;8.618;2023-01-19T06:41:14;93227.44;;;0.41;37.16
70902;BME280;58548;47.210;8.618;2023-01-19T06:43:42;93104.56;;;-0.34;37.75
70902;BME280;58548;47.210;8.618;2023-01-19T06:46:08;93222.59;;;0.38;37.60
70902;BME280;58548;47.210;8.618;2023-01-19T06:48:38;93191.06;;;0.10;38.12
70902;BME280;58548;47.210;8.618;2023-01-19T06:51:04;93221.56;;;0.31;38.30
70902;BME280;58548;47.210;8.618;2023-01-19T06:53:33;93209.84;;;0.28;37.67
70902;BME280;58548;47.210;8.618;2023-01-19T06:56:03;93146.03;;;-0.21;38.36
70902;BME280;58548;47.210;8.618;2023-01-19T06:58:32;93222.69;;;0.28;37.79
70902;BME280;58548;47.210;8.618;2023-01-19T07:01:08;93099.19;;;-0.59;37.03
70902;BME280;58548;47.210;8.618;2023-01-19T07:03:37;93104.34;;;-0.59;37.44
70902;BME280;58548;47.210;8.618;2023-01-19T07:06:04;93239.19;;;0.26;37.78
70902;BME280;58548;47.210;8.618;2023-01-19T07:08:34;93221.16;;;0.18;38.13
70902;BME280;58548;47.210;8.618;2023-01-19T07:11:11;93110.50;;;-0.52;38.22
70902;BME280;58548;47.210;8.618;2023-01-19T07:13:40;93072.47;;;-0.74;38.49
70902;BME280;58548;47.210;8.618;2023-01-19T07:16:13;93204.00;;;0.00;38.30
70902;BME280;58548;47.210;8.618;2023-01-19T07:18:43;93241.44;;;0.29;37.79
70902;BME280;58548;47.210;8.618;2023-01-19T07:21:12;93245.19;;;0.35;38.46
70902;BME280;58548;47.210;8.618;2023-01-19T07:23:40;93255.38;;;0.44;38.49
70902;BME280;58548;47.210;8.618;2023-01-19T07:26:09;93250.97;;;0.55;37.78
70902;BME280;58548;47.210;8.618;2023-01-19T07:28:35;93099.13;;;-0.49;38.13
70902;BME280;58548;47.210;8.618;2023-01-19T07:31:04;93264.47;;;0.57;38.39
70902;BME280;58548;47.210;8.618;2023-01-19T07:33:32;93290.56;;;0.62;37.90
70902;BME280;58548;47.210;8.618;2023-01-19T07:36:00;93132.25;;;-0.20;38.51
70902;BME280;58548;47.210;8.618;2023-01-19T07:38:28;93254.91;;;0.67;38.11
70902;BME280;58548;47.210;8.618;2023-01-19T07:41:02;93133.50;;;-0.06;38.29
70902;BME280;58548;47.210;8.618;2023-01-19T07:43:28;93250.44;;;0.69;38.49
70902;BME280;58548;47.210;8.618;2023-01-19T07:45:58;93146.91;;;0.06;38.20
70902;BME280;58548;47.210;8.618;2023-01-19T07:48:26;93287.25;;;0.96;38.34
70902;BME280;58548;47.210;8.618;2023-01-19T07:50:52;93252.78;;;0.81;38.29
70902;BME280;58548;47.210;8.618;2023-01-19T07:53:19;93277.31;;;1.01;37.95
70902;BME280;58548;47.210;8.618;2023-01-19T07:55:45;93265.06;;;0.95;38.22
70902;BME280;58548;47.210;8.618;2023-01-19T07:58:15;93279.94;;;1.10;37.39
70902;BME280;58548;47.210;8.618;2023-01-19T08:00:41;93254.50;;;1.07;38.03
70902;BME280;58548;47.210;8.618;2023-01-19T08:03:08;93273.91;;;1.27;37.54
70902;BME280;58548;47.210;8.618;2023-01-19T08:05:34;93272.34;;;1.34;37.96
70902;BME280;58548;47.210;8.618;2023-01-19T08:08:04;93273.19;;;1.43;38.25
70902;BME280;58548;47.210;8.618;2023-01-19T08:10:30;93276.97;;;1.57;38.34
70902;BME280;58548;47.210;8.618;2023-01-19T08:13:02;93253.50;;;1.60;38.23
70902;BME280;58548;47.210;8.618;2023-01-19T08:15:28;93119.13;;;0.89;38.66
70902;BME280;58548;47.210;8.618;2023-01-19T08:18:01;93238.63;;;1.89;38.40
70902;BME280;58548;47.210;8.618;2023-01-19T08:20:31;93276.22;;;2.33;38.74
70902;BME280;58548;47.210;8.618;2023-01-19T08:22:59;93143.34;;;1.72;37.87
70902;BME280;58548;47.210;8.618;2023-01-19T08:25:31;93280.44;;;2.75;37.39
70902;BME280;58548;47.210;8.618;2023-01-19T08:27:57;93149.31;;;2.14;38.44
70902;BME280;58548;47.210;8.618;2023-01-19T08:30:24;93219.53;;;2.74;37.52
70902;BME280;58548;47.210;8.618;2023-01-19T08:32:54;93209.34;;;2.89;37.61
70902;BME280;58548;47.210;8.618;2023-01-19T08:35:49;93145.38;;;2.76;37.68
70902;BME280;58548;47.210;8.618;2023-01-19T08:38:18;93173.81;;;3.08;37.33
70902;BME280;58548;47.210;8.618;2023-01-19T08:40:45;93187.25;;;3.43;36.60
70902;BME280;58548;47.210;8.618;2023-01-19T08:43:13;93182.13;;;3.66;36.82
70902;BME280;58548;47.210;8.618;2023-01-19T08:45:45;93181.00;;;4.00;36.69
70902;BME280;58548;47.210;8.618;2023-01-19T08:48:22;93300.81;;;5.01;36.91
70902;BME280;58548;47.210;8.618;2023-01-19T08:50:50;93145.00;;;4.37;35.48
70902;BME280;58548;47.210;8.618;2023-01-19T08:53:21;93199.78;;;5.09;36.31
70902;BME280;58548;47.210;8.618;2023-01-19T08:55:56;93176.41;;;5.32;35.13
70902;BME280;58548;47.210;8.618;2023-01-19T08:58:28;93269.03;;;6.27;34.51
70902;BME280;58548;47.210;8.618;2023-01-19T09:00:58;93298.72;;;6.83;34.23
70902;BME280;58548;47.210;8.618;2023-01-19T09:03:26;93207.53;;;6.64;34.33
70902;BME280;58548;47.210;8.618;2023-01-19T09:05:52;93193.88;;;7.05;33.29
70902;BME280;58548;47.210;8.618;2023-01-19T09:08:18;93291.22;;;8.22;32.62
70902;BME280;58548;47.210;8.618;2023-01-19T09:10:50;93187.94;;;8.09;32.38
70902;BME280;58548;47.210;8.618;2023-01-19T09:13:20;93282.22;;;9.40;31.86
70902;BME280;58548;47.210;8.618;2023-01-19T09:15:46;93182.38;;;9.46;30.57
70902;BME280;58548;47.210;8.618;2023-01-19T09:18:17;93208.56;;;10.24;29.12
70902;BME280;58548;47.210;8.618;2023-01-19T09:20:46;93284.16;;;11.15;28.50
70902;BME280;58548;47.210;8.618;2023-01-19T09:23:15;93292.72;;;11.73;28.21
70902;BME280;58548;47.210;8.618;2023-01-19T09:25:45;93211.19;;;11.57;27.12
70902;BME280;58548;47.210;8.618;2023-01-19T09:28:13;93287.75;;;12.46;26.40
70902;BME280;58548;47.210;8.618;2023-01-19T09:30:41;93291.03;;;12.72;25.99
70902;BME280;58548;47.210;8.618;2023-01-19T09:33:10;93202.19;;;12.40;25.52
70902;BME280;58548;47.210;8.618;2023-01-19T09:35:38;93296.47;;;13.31;25.56
70902;BME280;58548;47.210;8.618;2023-01-19T09:38:05;93252.69;;;13.44;24.82
70902;BME280;58548;47.210;8.618;2023-01-19T09:40:44;93264.78;;;14.04;24.19
70902;BME280;58548;47.210;8.618;2023-01-19T09:45:52;93275.09;;;15.21;23.38
70902;BME280;58548;47.210;8.618;2023-01-19T09:48:36;93285.16;;;15.76;22.63
70902;BME280;58548;47.210;8.618;2023-01-19T09:51:11;93283.78;;;16.30;21.59
70902;BME280;58548;47.210;8.618;2023-01-19T09:53:41;93290.44;;;16.82;22.11
70902;BME280;58548;47.210;8.618;2023-01-19T09:56:12;93192.31;;;16.80;21.49
70902;BME280;58548;47.210;8.618;2023-01-19T09:58:42;93270.78;;;17.92;20.64
70902;BME280;58548;47.210;8.618;2023-01-19T10:01:45;93287.53;;;18.62;20.16
70902;BME280;58548;47.210;8.618;2023-01-19T10:06:52;93241.13;;;19.54;19.25
70902;BME280;58548;47.210;8.618;2023-01-19T10:10:16;93184.97;;;19.62;18.55
70902;BME280;58548;47.210;8.618;2023-01-19T10:18:35;93281.53;;;21.03;17.28
70902;BME280;58548;47.210;8.618;2023-01-19T10:23:47;93287.84;;;21.17;17.33
70902;BME280;58548;47.210;8.618;2023-01-19T10:26:28;93187.25;;;20.66;17.62
70902;BME280;58548;47.210;8.618;2023-01-19T10:29:27;93212.94;;;21.20;17.19
70902;BME280;58548;47.210;8.618;2023-01-19T10:32:11;93194.66;;;21.48;16.70
70902;BME280;58548;47.210;8.618;2023-01-19T10:34:40;93284.19;;;22.36;16.39
70902;BME280;58548;47.210;8.618;2023-01-19T10:40:00;93188.00;;;22.29;15.67
70902;BME280;58548;47.210;8.618;2023-01-19T10:42:29;93245.75;;;22.91;15.93
70902;BME280;58548;47.210;8.618;2023-01-19T10:44:56;93285.03;;;23.43;15.30
70902;BME280;58548;47.210;8.618;2023-01-19T10:47:35;93179.22;;;22.91;14.63
70902;BME280;58548;47.210;8.618;2023-01-19T10:50:21;93273.13;;;23.54;14.78
70902;BME280;58548;47.210;8.618;2023-01-19T10:52:52;93276.97;;;23.48;14.72
70902;BME280;58548;47.210;8.618;2023-01-19T10:57:53;93265.94;;;23.36;14.69
70902;BME280;58548;47.210;8.618;2023-01-19T11:00:42;93274.50;;;23.52;14.59
70902;BME280;58548;47.210;8.618;2023-01-19T11:03:29;93180.22;;;22.95;14.69
70902;BME280;58548;47.210;8.618;2023-01-19T11:08:47;93181.06;;;23.10;14.42
70902;BME280;58548;47.210;8.618;2023-01-19T11:11:20;93278.72;;;23.72;14.48
70902;BME280;58548;47.210;8.618;2023-01-19T11:14:11;93145.84;;;22.80;14.17
70902;BME280;58548;47.210;8.618;2023-01-19T11:16:45;93243.84;;;23.35;14.27
70902;BME280;58548;47.210;8.618;2023-01-19T11:19:29;93247.78;;;23.38;14.29
70902;BME280;58548;47.210;8.618;2023-01-19T11:22:17;93266.38;;;23.43;14.58
70902;BME280;58548;47.210;8.618;2023-01-19T11:24:48;93261.63;;;23.40;14.87
70902;BME280;58548;47.210;8.618;2023-01-19T11:27:21;93198.50;;;23.02;14.42
70902;BME280;58548;47.210;8.618;2023-01-19T11:30:06;93258.31;;;23.48;14.55
70902;BME280;58548;47.210;8.618;2023-01-19T11:32:44;93246.72;;;23.39;14.73
70902;BME280;58548;47.210;8.618;2023-01-19T11:38:16;93257.56;;;23.61;14.61
70902;BME280;58548;47.210;8.618;2023-01-19T11:40:51;93216.25;;;23.45;14.42
70902;BME280;58548;47.210;8.618;2023-01-19T11:43:20;93158.91;;;23.14;14.25
70902;BME280;58548;47.210;8.618;2023-01-19T11:45:49;93251.38;;;23.80;13.77
70902;BME280;58548;47.210;8.618;2023-01-19T11:49:06;93261.22;;;23.99;14.15
70902;BME280;58548;47.210;8.618;2023-01-19T11:51:16;93257.53;;;23.94;13.97
70902;BME280;58548;47.210;8.618;2023-01-19T11:53:51;93247.72;;;23.76;14.01
70902;BME280;58548;47.210;8.618;2023-01-19T11:56:24;93256.75;;;23.94;14.33
70902;BME280;58548;47.210;8.618;2023-01-19T11:58:51;93255.88;;;23.99;14.16
70902;BME280;58548;47.210;8.618;2023-01-19T12:01:35;93218.72;;;23.88;13.97
70902;BME280;58548;47.210;8.618;2023-01-19T12:04:13;93253.75;;;24.15;13.74
70902;BME280;58548;47.210;8.618;2023-01-19T12:06:49;93162.81;;;23.69;13.79
70902;BME280;58548;47.210;8.618;2023-01-19T12:09:24;93260.38;;;24.31;14.17
70902;BME280;58548;47.210;8.618;2023-01-19T12:11:57;93257.22;;;24.43;13.80
70902;BME280;58548;47.210;8.618;2023-01-19T12:14:49;93249.03;;;24.53;13.51
70902;BME280;58548;47.210;8.618;2023-01-19T12:17:45;93257.91;;;24.63;13.60
70902;BME280;58548;47.210;8.618;2023-01-19T12:20:39;93253.38;;;24.63;13.40
70902;BME280;58548;47.210;8.618;2023-01-19T12:28:43;93239.13;;;25.19;12.84
70902;BME280;58548;47.210;8.618;2023-01-19T12:31:18;93233.22;;;25.44;12.34
70902;BME280;58548;47.210;8.618;2023-01-19T12:33:47;93157.16;;;25.05;12.55
70902;BME280;58548;47.210;8.618;2023-01-19T12:39:20;93155.63;;;24.53;12.65
70902;BME280;58548;47.210;8.618;2023-01-19T12:41:48;93152.44;;;24.51;12.48
70902;BME280;58548;47.210;8.618;2023-01-19T12:44:29;93245.09;;;25.16;13.13
70902;BME280;58548;47.210;8.618;2023-01-19T12:47:20;93167.13;;;24.63;12.47
70902;BME280;58548;47.210;8.618;2023-01-19T12:49:54;93223.66;;;24.93;13.00
70902;BME280;58548;47.210;8.618;2023-01-19T13:00:47;93173.47;;;24.81;13.35
70902;BME280;58548;47.210;8.618;2023-01-19T13:13:36;93234.75;;;25.23;12.89
70902;BME280;58548;47.210;8.618;2023-01-19T13:18:49;93128.56;;;24.32;13.19
70902;BME280;58548;47.210;8.618;2023-01-19T13:23:57;93215.50;;;24.61;12.74
70902;BME280;58548;47.210;8.618;2023-01-19T13:26:28;93142.88;;;23.94;12.94
70902;BME280;58548;47.210;8.618;2023-01-19T13:29:07;93159.06;;;23.84;13.72
70902;BME280;58548;47.210;8.618;2023-01-19T13:31:40;93197.56;;;23.78;12.89
70902;BME280;58548;47.210;8.618;2023-01-19T13:34:20;93225.56;;;23.61;13.36
70902;BME280;58548;47.210;8.618;2023-01-19T13:36:52;93005.59;;;21.90;13.46
70902;BME280;58548;47.210;8.618;2023-01-19T13:41:51;93215.38;;;22.54;14.09
70902;BME280;58548;47.210;8.618;2023-01-19T13:44:25;93218.88;;;22.25;14.62
70902;BME280;58548;47.210;8.618;2023-01-19T13:46:54;93243.00;;;22.09;14.92
70902;BME280;58548;47.210;8.618;2023-01-19T13:49:32;93241.06;;;21.91;14.91
70902;BME280;58548;47.210;8.618;2023-01-19T13:52:03;93239.66;;;21.69;15.56
70902;BME280;58548;47.210;8.618;2023-01-19T13:54:29;93129.88;;;20.80;15.31
70902;BME280;58548;47.210;8.618;2023-01-19T13:56:55;93241.66;;;21.18;15.53
70902;BME280;58548;47.210;8.618;2023-01-19T13:59:26;93231.66;;;21.00;16.01
70902;BME280;58548;47.210;8.618;2023-01-19T14:01:52;93233.84;;;20.92;15.82
70902;BME280;58548;47.210;8.618;2023-01-19T14:04:32;93119.28;;;20.35;15.83
70902;BME280;58548;47.210;8.618;2023-01-19T14:07:05;93242.59;;;21.33;15.27
70902;BME280;58548;47.210;8.618;2023-01-19T14:09:38;93128.88;;;20.76;15.29
70902;BME280;58548;47.210;8.618;2023-01-19T14:12:13;93107.00;;;20.89;14.85
70902;BME280;58548;47.210;8.618;2023-01-19T14:14:41;93199.28;;;21.67;13.69
70902;BME280;58548;47.210;8.618;2023-01-19T14:17:36;93229.19;;;22.07;13.95
70902;BME280;58548;47.210;8.618;2023-01-19T14:20:03;93226.69;;;22.16;13.70
70902;BME280;58548;47.210;8.618;2023-01-19T14:22:43;93113.53;;;21.32;13.79
70902;BME280;58548;47.210;8.618;2023-01-19T14:25:31;93223.84;;;21.83;13.68
70902;BME280;58548;47.210;8.618;2023-01-19T14:33:42;93211.06;;;20.81;14.21
70902;BME280;58548;47.210;8.618;2023-01-19T14:38:50;93237.53;;;20.36;15.19
70902;BME280;58548;47.210;8.618;2023-01-19T14:41:36;93226.47;;;20.08;15.12
70902;BME280;58548;47.210;8.618;2023-01-19T14:44:10;93230.53;;;19.69;15.41
70902;BME280;58548;47.210;8.618;2023-01-19T14:46:50;93156.13;;;18.83;15.75
70902;BME280;58548;47.210;8.618;2023-01-19T14:51:51;93233.09;;;18.71;16.29
70902;BME280;58548;47.210;8.618;2023-01-19T14:54:28;93118.53;;;17.66;16.02